createdAt,value
2023-07-10T00:02:02.091Z,62.90
2023-07-10T00:07:04.459Z,61.35
2023-07-10T00:12:11.985Z,62.54
2023-07-10T00:17:16.460Z,62.66
2023-07-10T00:22:18.616Z,63.90
2023-07-10T00:27:21.010Z,64.87
2023-07-10T00:32:23.259Z,65.46
2023-07-10T00:37:25.428Z,66.03
2023-07-10T00:42:27.795Z,66.40
2023-07-10T00:47:39.031Z,67.46
2023-07-10T00:52:45.229Z,67.40
2023-07-10T00:57:51.648Z,68.12
2023-07-10T01:02:53.931Z,69.33
2023-07-10T01:07:59.451Z,69.42
2023-07-10T01:13:02.104Z,69.65
2023-07-10T01:18:06.493Z,68.47
2023-07-10T01:23:08.928Z,69.50
2023-07-10T01:28:16.181Z,68.02
2023-07-10T01:33:32.654Z,68.78
2023-07-10T01:39:22.730Z,68.36
2023-07-10T01:44:24.907Z,67.57
2023-07-10T01:49:35.926Z,69.17
2023-07-10T01:54:38.519Z,69.79
2023-07-10T01:59:40.861Z,70.31
2023-07-10T02:04:43.132Z,70.22
2023-07-10T02:09:45.343Z,70.03
2023-07-10T02:14:47.634Z,71.03
2023-07-10T02:19:49.810Z,71.38
2023-07-10T02:24:52.068Z,71.64
2023-07-10T02:29:54.319Z,72.21
2023-07-10T02:34:56.472Z,72.26
2023-07-10T02:39:58.814Z,73.35
2023-07-10T02:45:01.016Z,73.18
2023-07-10T02:50:03.206Z,73.16
2023-07-10T02:55:05.667Z,73.42
2023-07-10T03:00:08.587Z,73.89
2023-07-10T03:05:11.289Z,73.68
2023-07-10T03:10:13.632Z,74.00
2023-07-10T03:15:15.929Z,73.64
2023-07-10T03:20:18.313Z,73.47
2023-07-10T03:25:20.499Z,74.35
2023-07-10T03:30:22.699Z,73.22
2023-07-10T03:35:24.879Z,72.52
2023-07-10T03:40:28.390Z,73.19
2023-07-10T03:45:32.262Z,71.88
2023-07-10T03:50:38.053Z,72.11
2023-07-10T03:55:49.146Z,71.70
2023-07-10T04:00:52.326Z,71.68
2023-07-10T04:05:56.489Z,71.60
2023-07-10T04:11:01.292Z,71.32
2023-07-10T04:16:06.623Z,70.70
2023-07-10T04:21:19.379Z,70.16
2023-07-10T04:26:24.748Z,69.17
2023-07-10T04:31:27.533Z,69.14
2023-07-10T04:36:29.919Z,69.11
2023-07-10T04:41:32.293Z,68.51
2023-07-10T04:46:35.363Z,68.56
2023-07-10T04:51:37.788Z,68.23
2023-07-10T04:56:40.259Z,68.08
2023-07-10T05:01:42.521Z,67.99
2023-07-10T05:06:44.749Z,68.00
2023-07-10T05:11:47.001Z,67.86
2023-07-10T05:16:49.314Z,67.68
2023-07-10T05:21:51.684Z,66.73
2023-07-10T05:26:54.031Z,65.32
2023-07-10T05:31:58.056Z,65.00
2023-07-10T05:37:00.466Z,63.85
2023-07-10T05:42:02.773Z,63.70
2023-07-10T05:47:05.495Z,63.12
2023-07-10T05:52:08.007Z,61.77
2023-07-10T05:57:10.579Z,61.85
2023-07-10T06:02:12.906Z,60.50
2023-07-10T06:07:15.203Z,60.96
2023-07-10T06:12:17.448Z,59.12
2023-07-10T06:17:19.738Z,57.58
2023-07-10T06:22:21.916Z,57.06
2023-07-10T06:27:24.453Z,56.55
2023-07-10T06:32:27.087Z,55.86
2023-07-10T06:37:29.326Z,54.89
2023-07-10T06:42:31.489Z,53.90
2023-07-10T06:47:39.248Z,53.11
2023-07-10T06:52:43.677Z,51.83
2023-07-10T06:57:46.154Z,51.32
2023-07-10T07:02:48.486Z,51.25
2023-07-10T07:07:50.838Z,50.91
2023-07-10T07:12:53.056Z,49.62
2023-07-10T07:17:55.340Z,49.63
2023-07-10T07:22:58.386Z,48.63
2023-07-10T07:28:00.804Z,47.80
2023-07-10T07:33:03.249Z,47.21
2023-07-10T07:38:05.462Z,46.59
2023-07-10T07:43:07.690Z,46.46
2023-07-10T07:48:09.906Z,45.15
2023-07-10T07:53:12.145Z,44.69
2023-07-10T07:58:14.306Z,44.11
2023-07-10T08:03:17.162Z,43.42
2023-07-10T08:08:20.011Z,39.39
2023-07-10T08:13:22.343Z,36.29
2023-07-10T08:18:24.588Z,34.58
2023-07-10T08:23:26.773Z,33.17
2023-07-10T08:28:29.384Z,31.70
2023-07-10T08:33:31.672Z,30.81
2023-07-10T08:38:35.977Z,29.76
2023-07-10T08:43:46.322Z,29.52
2023-07-10T08:49:06.922Z,29.28
2023-07-10T08:54:19.830Z,28.68
2023-07-10T08:59:28.206Z,29.30
2023-07-10T09:04:32.003Z,28.07
2023-07-10T09:09:45.209Z,27.78
2023-07-10T09:14:53.193Z,26.51
2023-07-10T09:19:58.282Z,27.28
2023-07-10T09:25:00.763Z,28.23
2023-07-10T09:30:03.170Z,29.17
2023-07-10T09:35:05.992Z,28.25
2023-07-10T09:40:40.257Z,29.86
2023-07-10T09:45:53.956Z,28.15
2023-07-10T09:50:57.469Z,27.72
2023-07-10T09:56:00.672Z,27.09
2023-07-10T10:01:05.903Z,26.42
2023-07-10T10:06:20.479Z,27.66
2023-07-10T10:11:42.406Z,25.94
2023-07-10T10:16:57.084Z,24.97
2023-07-10T10:22:02.172Z,24.35
2023-07-10T10:27:38.472Z,24.49
2023-07-10T10:33:10.772Z,26.33
2023-07-10T10:38:36.884Z,27.01
2023-07-10T10:43:47.486Z,25.56
2023-07-10T10:49:04.768Z,23.64
2023-07-10T10:54:33.579Z,26.25
2023-07-10T11:00:35.430Z,25.70
2023-07-10T11:05:49.094Z,25.60
2023-07-10T11:10:53.987Z,26.55
2023-07-10T11:15:57.118Z,24.00
2023-07-10T11:21:02.877Z,19.80
2023-07-10T11:26:22.362Z,20.97
2023-07-10T11:31:33.447Z,22.09
2023-07-10T11:36:35.676Z,24.97
2023-07-10T11:41:43.877Z,21.86
2023-07-10T11:47:02.147Z,20.09
2023-07-10T11:52:14.866Z,20.89
2023-07-10T11:57:20.503Z,18.70
2023-07-10T12:02:39.875Z,18.36
2023-07-10T12:08:24.776Z,19.27
2023-07-10T12:13:31.679Z,21.24
2023-07-10T12:18:37.813Z,19.25
2023-07-10T12:24:02.241Z,21.54
2023-07-10T12:29:05.908Z,22.33
2023-07-10T12:34:30.246Z,21.15
2023-07-10T12:39:33.226Z,23.83
2023-07-10T12:44:44.690Z,24.24
2023-07-10T12:49:52.320Z,23.38
2023-07-10T12:54:55.855Z,22.07
2023-07-10T13:00:08.458Z,22.08
2023-07-10T13:05:36.206Z,23.01
2023-07-10T13:10:44.444Z,23.97
2023-07-10T13:15:47.670Z,24.35
2023-07-10T13:20:50.041Z,24.21
2023-07-10T13:25:54.042Z,23.23
2023-07-10T13:30:56.366Z,22.50
2023-07-10T13:36:15.053Z,22.25
2023-07-10T13:41:19.290Z,19.41
2023-07-10T13:46:31.278Z,20.48
2023-07-10T13:51:42.241Z,18.88
2023-07-10T13:56:48.469Z,18.32
2023-07-10T14:01:52.365Z,18.87
2023-07-10T14:06:55.001Z,18.95
2023-07-10T14:11:58.210Z,19.70
2023-07-10T14:17:00.403Z,19.48
2023-07-10T14:22:02.614Z,19.62
2023-07-10T14:27:18.955Z,20.34
2023-07-10T14:32:23.328Z,22.76
2023-07-10T14:37:29.328Z,22.97
2023-07-10T14:42:31.532Z,21.76
2023-07-10T14:47:36.376Z,21.02
2023-07-10T14:52:42.402Z,22.86
2023-07-10T14:57:44.846Z,21.93
2023-07-10T15:02:47.349Z,20.48
2023-07-10T15:07:50.996Z,20.43
2023-07-10T15:12:54.311Z,20.27
2023-07-10T15:17:57.069Z,21.58
2023-07-10T15:22:59.313Z,22.91
2023-07-10T15:28:01.520Z,24.04
2023-07-10T15:33:04.213Z,23.76
2023-07-10T15:38:06.985Z,24.16
2023-07-10T15:43:20.181Z,24.32
2023-07-10T15:48:25.955Z,24.70
2023-07-10T15:53:30.929Z,25.11
2023-07-10T15:58:33.153Z,25.03
2023-07-10T16:03:35.826Z,25.64
2023-07-10T16:08:39.832Z,26.40
2023-07-10T16:13:43.510Z,26.74
2023-07-10T16:18:45.825Z,27.03
2023-07-10T16:23:48.451Z,27.28
2023-07-10T16:28:51.383Z,27.24
2023-07-10T16:33:53.812Z,28.47
2023-07-10T16:38:56.556Z,28.80
2023-07-10T16:43:58.830Z,28.54
2023-07-10T16:49:01.042Z,28.40
2023-07-10T16:54:04.392Z,28.05
2023-07-10T16:59:06.590Z,27.88
2023-07-10T17:04:10.176Z,27.71
2023-07-10T17:09:12.596Z,28.02
2023-07-10T17:14:16.332Z,28.74
2023-07-10T17:19:18.876Z,29.28
2023-07-10T17:24:22.347Z,29.86
2023-07-10T17:29:24.902Z,30.44
2023-07-10T17:34:27.138Z,30.89
2023-07-10T17:39:30.164Z,32.35
2023-07-10T17:44:34.686Z,34.14
2023-07-10T17:49:40.761Z,34.71
2023-07-10T17:54:45.730Z,35.29
2023-07-10T17:59:48.702Z,35.42
2023-07-10T18:04:52.757Z,35.75
2023-07-10T18:09:55.076Z,35.96
2023-07-10T18:14:57.375Z,37.38
2023-07-10T18:19:59.592Z,45.19
2023-07-10T18:25:01.857Z,44.33
2023-07-10T18:30:04.619Z,47.76
2023-07-10T18:35:07.490Z,48.19
2023-07-10T18:40:10.718Z,45.92
2023-07-10T18:45:20.218Z,44.67
2023-07-10T18:50:25.603Z,47.53
2023-07-10T18:55:28.288Z,47.89
2023-07-10T19:00:30.523Z,48.44
2023-07-10T19:05:32.742Z,48.67
2023-07-10T19:10:34.987Z,47.92
2023-07-10T19:15:37.281Z,49.45
2023-07-10T19:20:39.471Z,49.28
2023-07-10T19:25:42.069Z,48.49
2023-07-10T19:31:00.324Z,47.46
2023-07-10T19:36:03.646Z,48.08
2023-07-10T19:41:06.250Z,47.48
2023-07-10T19:46:22.129Z,46.53
2023-07-10T19:51:24.363Z,46.71
2023-07-10T19:56:26.716Z,47.56
2023-07-10T20:01:29.020Z,47.23
2023-07-10T20:06:32.142Z,47.99
2023-07-10T20:11:34.417Z,48.28
2023-07-10T20:16:36.643Z,48.68
2023-07-10T20:21:38.841Z,49.09
2023-07-10T20:26:42.053Z,49.60
2023-07-10T20:31:45.964Z,50.45
2023-07-10T20:36:50.828Z,50.85
2023-07-10T20:41:56.903Z,50.72
2023-07-10T20:46:59.400Z,51.15
2023-07-10T20:52:01.911Z,52.00
2023-07-10T20:57:04.882Z,52.08
2023-07-10T21:02:19.479Z,52.02
2023-07-10T21:07:22.058Z,52.10
2023-07-10T21:12:24.697Z,52.04
2023-07-10T21:17:30.458Z,52.55
2023-07-10T21:22:32.804Z,53.07
2023-07-10T21:27:35.090Z,53.08
2023-07-10T21:32:37.307Z,53.66
2023-07-10T21:37:39.506Z,54.92
2023-07-10T21:42:41.683Z,55.08
2023-07-10T21:47:43.907Z,54.63
2023-07-10T21:52:46.146Z,54.27
2023-07-10T21:57:48.419Z,54.25
2023-07-10T22:02:50.814Z,53.62
2023-07-10T22:07:53.113Z,54.12
2023-07-10T22:13:06.485Z,54.62
2023-07-10T22:18:16.743Z,54.38
2023-07-10T22:23:20.621Z,55.32
2023-07-10T22:28:28.565Z,55.86
2023-07-10T22:33:38.123Z,57.92
2023-07-10T22:38:40.584Z,58.34
2023-07-10T22:44:04.814Z,58.68
2023-07-10T22:49:10.218Z,59.12
2023-07-10T22:54:12.431Z,59.35
2023-07-10T22:59:17.738Z,60.08
2023-07-10T23:04:19.921Z,60.54
2023-07-10T23:09:22.196Z,60.98
2023-07-10T23:14:24.381Z,60.84
2023-07-10T23:19:26.630Z,60.64
2023-07-10T23:24:29.686Z,61.48
2023-07-10T23:29:31.886Z,62.66
2023-07-10T23:34:34.266Z,64.20
2023-07-10T23:39:37.639Z,64.95
2023-07-10T23:44:39.851Z,65.41
2023-07-10T23:49:42.086Z,64.65
2023-07-10T23:54:44.291Z,64.24
2023-07-10T23:59:46.433Z,63.86
